sensor_id;sensor_type;location;lat;lon;timestamp;P1;durP1;ratioP1;P2;durP2;ratioP2
5585;SDS011;2815;54.094;12.112;2022-10-24T00:00:32;5.93;;;2.92;;
5585;SDS011;2815;54.094;12.112;2022-10-24T00:03:00;5.88;;;3.20;;
5585;SDS011;2815;54.094;12.112;2022-10-24T00:05:28;6.25;;;3.13;;
5585;SDS011;2815;54.094;12.112;2022-10-24T00:07:58;5.18;;;3.20;;
5585;SDS011;2815;54.094;12.112;2022-10-24T00:10:25;5.78;;;3.20;;
5585;SDS011;2815;54.094;12.112;2022-10-24T00:12:53;5.90;;;2.72;;
5585;SDS011;2815;54.094;12.112;2022-10-24T00:15:21;9.88;;;3.40;;
5585;SDS011;2815;54.094;12.112;2022-10-24T00:17:49;5.55;;;3.28;;
5585;SDS011;2815;54.094;12.112;2022-10-24T00:20:17;9.10;;;2.78;;
5585;SDS011;2815;54.094;12.112;2022-10-24T00:22:45;4.57;;;2.78;;
5585;SDS011;2815;54.094;12.112;2022-10-24T00:25:14;5.00;;;2.58;;
5585;SDS011;2815;54.094;12.112;2022-10-24T00:27:42;3.97;;;2.33;;
5585;SDS011;2815;54.094;12.112;2022-10-24T00:30:11;6.43;;;2.70;;
5585;SDS011;2815;54.094;12.112;2022-10-24T00:32:39;7.43;;;2.90;;
5585;SDS011;2815;54.094;12.112;2022-10-24T00:35:08;5.78;;;2.75;;
5585;SDS011;2815;54.094;12.112;2022-10-24T00:37:37;10.05;;;2.80;;
5585;SDS011;2815;54.094;12.112;2022-10-24T00:40:05;4.70;;;2.58;;
5585;SDS011;2815;54.094;12.112;2022-10-24T00:42:37;4.15;;;2.33;;
5585;SDS011;2815;54.094;12.112;2022-10-24T00:48:11;6.57;;;2.67;;
5585;SDS011;2815;54.094;12.112;2022-10-24T00:50:42;4.00;;;2.65;;
5585;SDS011;2815;54.094;12.112;2022-10-24T00:53:10;6.88;;;3.05;;
5585;SDS011;2815;54.094;12.112;2022-10-24T00:55:38;4.07;;;2.75;;
5585;SDS011;2815;54.094;12.112;2022-10-24T00:58:07;6.18;;;2.67;;
5585;SDS011;2815;54.094;12.112;2022-10-24T01:00:35;5.57;;;2.42;;
5585;SDS011;2815;54.094;12.112;2022-10-24T01:03:03;3.80;;;2.20;;
5585;SDS011;2815;54.094;12.112;2022-10-24T01:05:33;4.20;;;1.90;;
5585;SDS011;2815;54.094;12.112;2022-10-24T01:08:07;3.47;;;1.70;;
5585;SDS011;2815;54.094;12.112;2022-10-24T01:13:11;2.60;;;1.40;;
5585;SDS011;2815;54.094;12.112;2022-10-24T01:15:45;3.13;;;2.10;;
5585;SDS011;2815;54.094;12.112;2022-10-24T01:18:16;5.35;;;2.50;;
5585;SDS011;2815;54.094;12.112;2022-10-24T01:20:54;6.72;;;2.03;;
5585;SDS011;2815;54.094;12.112;2022-10-24T01:23:44;6.50;;;2.20;;
5585;SDS011;2815;54.094;12.112;2022-10-24T01:26:33;7.63;;;2.50;;
5585;SDS011;2815;54.094;12.112;2022-10-24T01:29:44;5.93;;;2.95;;
5585;SDS011;2815;54.094;12.112;2022-10-24T01:32:16;3.70;;;2.55;;
5585;SDS011;2815;54.094;12.112;2022-10-24T01:34:52;6.32;;;2.90;;
5585;SDS011;2815;54.094;12.112;2022-10-24T01:37:27;5.28;;;2.28;;
5585;SDS011;2815;54.094;12.112;2022-10-24T01:39:58;3.72;;;2.28;;
5585;SDS011;2815;54.094;12.112;2022-10-24T01:42:29;4.40;;;2.83;;
5585;SDS011;2815;54.094;12.112;2022-10-24T01:45:00;7.43;;;3.80;;
5585;SDS011;2815;54.094;12.112;2022-10-24T01:47:29;7.05;;;3.50;;
5585;SDS011;2815;54.094;12.112;2022-10-24T01:50:02;4.25;;;3.13;;
5585;SDS011;2815;54.094;12.112;2022-10-24T01:52:33;6.72;;;2.90;;
5585;SDS011;2815;54.094;12.112;2022-10-24T01:55:03;6.07;;;3.58;;
5585;SDS011;2815;54.094;12.112;2022-10-24T01:57:31;7.05;;;3.85;;
5585;SDS011;2815;54.094;12.112;2022-10-24T02:00:04;8.20;;;3.70;;
5585;SDS011;2815;54.094;12.112;2022-10-24T02:02:37;4.20;;;3.10;;
5585;SDS011;2815;54.094;12.112;2022-10-24T02:05:08;5.90;;;3.40;;
5585;SDS011;2815;54.094;12.112;2022-10-24T02:07:38;8.05;;;3.75;;
5585;SDS011;2815;54.094;12.112;2022-10-24T02:10:08;10.75;;;3.88;;
5585;SDS011;2815;54.094;12.112;2022-10-24T02:12:40;5.88;;;3.53;;
5585;SDS011;2815;54.094;12.112;2022-10-24T02:15:13;7.07;;;4.00;;
5585;SDS011;2815;54.094;12.112;2022-10-24T02:17:45;6.75;;;4.22;;
5585;SDS011;2815;54.094;12.112;2022-10-24T02:20:13;8.82;;;4.03;;
5585;SDS011;2815;54.094;12.112;2022-10-24T02:22:44;11.27;;;4.60;;
5585;SDS011;2815;54.094;12.112;2022-10-24T02:25:16;11.35;;;4.63;;
5585;SDS011;2815;54.094;12.112;2022-10-24T02:27:47;12.55;;;4.80;;
5585;SDS011;2815;54.094;12.112;2022-10-24T02:30:20;7.25;;;4.85;;
5585;SDS011;2815;54.094;12.112;2022-10-24T02:32:49;7.43;;;4.50;;
5585;SDS011;2815;54.094;12.112;2022-10-24T02:35:21;8.23;;;4.20;;
5585;SDS011;2815;54.094;12.112;2022-10-24T02:37:52;7.60;;;4.25;;
5585;SDS011;2815;54.094;12.112;2022-10-24T02:40:21;9.27;;;4.30;;
5585;SDS011;2815;54.094;12.112;2022-10-24T02:42:50;8.90;;;4.63;;
5585;SDS011;2815;54.094;12.112;2022-10-24T02:45:21;8.52;;;4.63;;
5585;SDS011;2815;54.094;12.112;2022-10-24T02:47:50;11.23;;;4.85;;
5585;SDS011;2815;54.094;12.112;2022-10-24T02:50:20;8.82;;;4.82;;
5585;SDS011;2815;54.094;12.112;2022-10-24T02:52:48;8.43;;;4.18;;
5585;SDS011;2815;54.094;12.112;2022-10-24T02:55:16;10.63;;;4.60;;
5585;SDS011;2815;54.094;12.112;2022-10-24T02:57:44;7.18;;;4.45;;
5585;SDS011;2815;54.094;12.112;2022-10-24T03:00:12;6.95;;;4.35;;
5585;SDS011;2815;54.094;12.112;2022-10-24T03:02:45;6.75;;;4.45;;
5585;SDS011;2815;54.094;12.112;2022-10-24T03:05:13;9.43;;;4.45;;
5585;SDS011;2815;54.094;12.112;2022-10-24T03:07:41;9.95;;;4.45;;
5585;SDS011;2815;54.094;12.112;2022-10-24T03:10:09;8.60;;;4.10;;
5585;SDS011;2815;54.094;12.112;2022-10-24T03:12:37;7.65;;;4.22;;
5585;SDS011;2815;54.094;12.112;2022-10-24T03:15:05;7.40;;;4.38;;
5585;SDS011;2815;54.094;12.112;2022-10-24T03:17:34;10.95;;;4.45;;
5585;SDS011;2815;54.094;12.112;2022-10-24T03:20:04;6.05;;;4.18;;
5585;SDS011;2815;54.094;12.112;2022-10-24T03:22:32;11.07;;;4.80;;
5585;SDS011;2815;54.094;12.112;2022-10-24T03:25:00;9.30;;;4.18;;
5585;SDS011;2815;54.094;12.112;2022-10-24T03:27:29;6.65;;;4.22;;
5585;SDS011;2815;54.094;12.112;2022-10-24T03:29:57;8.32;;;3.92;;
5585;SDS011;2815;54.094;12.112;2022-10-24T03:32:31;11.30;;;4.80;;
5585;SDS011;2815;54.094;12.112;2022-10-24T03:35:00;6.20;;;4.65;;
5585;SDS011;2815;54.094;12.112;2022-10-24T03:37:29;10.88;;;4.53;;
5585;SDS011;2815;54.094;12.112;2022-10-24T03:39:57;8.90;;;4.10;;
5585;SDS011;2815;54.094;12.112;2022-10-24T03:42:25;9.27;;;4.80;;
5585;SDS011;2815;54.094;12.112;2022-10-24T03:44:53;7.85;;;4.47;;
5585;SDS011;2815;54.094;12.112;2022-10-24T03:47:21;9.90;;;4.82;;
5585;SDS011;2815;54.094;12.112;2022-10-24T03:49:49;12.00;;;5.57;;
5585;SDS011;2815;54.094;12.112;2022-10-24T03:52:17;11.35;;;5.00;;
5585;SDS011;2815;54.094;12.112;2022-10-24T03:54:46;7.95;;;5.07;;
5585;SDS011;2815;54.094;12.112;2022-10-24T03:57:14;10.23;;;4.95;;
5585;SDS011;2815;54.094;12.112;2022-10-24T03:59:42;6.68;;;4.50;;
5585;SDS011;2815;54.094;12.112;2022-10-24T04:02:10;8.63;;;4.75;;
5585;SDS011;2815;54.094;12.112;2022-10-24T04:04:39;8.95;;;4.60;;
5585;SDS011;2815;54.094;12.112;2022-10-24T04:07:07;12.57;;;5.57;;
5585;SDS011;2815;54.094;12.112;2022-10-24T04:09:35;6.70;;;5.00;;
5585;SDS011;2815;54.094;12.112;2022-10-24T04:12:04;7.03;;;4.40;;
5585;SDS011;2815;54.094;12.112;2022-10-24T04:14:32;9.60;;;5.20;;
5585;SDS011;2815;54.094;12.112;2022-10-24T04:17:00;8.98;;;4.82;;
5585;SDS011;2815;54.094;12.112;2022-10-24T04:19:28;9.52;;;4.45;;
5585;SDS011;2815;54.094;12.112;2022-10-24T04:21:56;11.95;;;5.22;;
5585;SDS011;2815;54.094;12.112;2022-10-24T04:24:24;11.15;;;5.10;;
5585;SDS011;2815;54.094;12.112;2022-10-24T04:26:52;8.07;;;4.68;;
5585;SDS011;2815;54.094;12.112;2022-10-24T04:29:21;10.13;;;4.88;;
5585;SDS011;2815;54.094;12.112;2022-10-24T04:31:49;11.43;;;5.25;;
5585;SDS011;2815;54.094;12.112;2022-10-24T04:34:17;11.43;;;5.53;;
5585;SDS011;2815;54.094;12.112;2022-10-24T04:36:45;11.68;;;5.07;;
5585;SDS011;2815;54.094;12.112;2022-10-24T04:39:13;8.02;;;5.00;;
5585;SDS011;2815;54.094;12.112;2022-10-24T04:41:41;9.30;;;5.10;;
5585;SDS011;2815;54.094;12.112;2022-10-24T04:44:09;11.00;;;4.57;;
5585;SDS011;2815;54.094;12.112;2022-10-24T04:46:38;7.68;;;4.43;;
5585;SDS011;2815;54.094;12.112;2022-10-24T04:49:06;11.45;;;4.88;;
5585;SDS011;2815;54.094;12.112;2022-10-24T04:51:35;9.70;;;5.47;;
5585;SDS011;2815;54.094;12.112;2022-10-24T04:54:03;8.80;;;5.30;;
5585;SDS011;2815;54.094;12.112;2022-10-24T04:56:31;9.68;;;5.60;;
5585;SDS011;2815;54.094;12.112;2022-10-24T04:58:59;7.43;;;4.65;;
5585;SDS011;2815;54.094;12.112;2022-10-24T05:01:27;12.23;;;5.40;;
5585;SDS011;2815;54.094;12.112;2022-10-24T05:03:57;10.15;;;5.68;;
5585;SDS011;2815;54.094;12.112;2022-10-24T05:06:25;9.43;;;5.32;;
5585;SDS011;2815;54.094;12.112;2022-10-24T05:08:53;8.75;;;5.00;;
5585;SDS011;2815;54.094;12.112;2022-10-24T05:11:21;9.90;;;5.00;;
5585;SDS011;2815;54.094;12.112;2022-10-24T05:13:49;8.75;;;4.75;;
5585;SDS011;2815;54.094;12.112;2022-10-24T05:16:17;8.90;;;4.53;;
5585;SDS011;2815;54.094;12.112;2022-10-24T05:18:45;9.40;;;4.97;;
5585;SDS011;2815;54.094;12.112;2022-10-24T05:21:14;8.30;;;4.90;;
5585;SDS011;2815;54.094;12.112;2022-10-24T05:23:42;10.38;;;5.30;;
5585;SDS011;2815;54.094;12.112;2022-10-24T05:26:10;10.82;;;4.97;;
5585;SDS011;2815;54.094;12.112;2022-10-24T05:28:38;12.43;;;4.97;;
5585;SDS011;2815;54.094;12.112;2022-10-24T05:31:06;8.27;;;4.30;;
5585;SDS011;2815;54.094;12.112;2022-10-24T05:33:34;9.88;;;4.43;;
5585;SDS011;2815;54.094;12.112;2022-10-24T05:36:03;9.15;;;4.95;;
5585;SDS011;2815;54.094;12.112;2022-10-24T05:38:33;15.80;;;5.10;;
5585;SDS011;2815;54.094;12.112;2022-10-24T05:41:01;10.55;;;5.07;;
5585;SDS011;2815;54.094;12.112;2022-10-24T05:43:29;10.98;;;4.85;;
5585;SDS011;2815;54.094;12.112;2022-10-24T05:45:57;10.15;;;5.15;;
5585;SDS011;2815;54.094;12.112;2022-10-24T05:48:25;9.38;;;4.93;;
5585;SDS011;2815;54.094;12.112;2022-10-24T05:50:54;13.57;;;5.53;;
5585;SDS011;2815;54.094;12.112;2022-10-24T05:53:22;7.57;;;3.95;;
5585;SDS011;2815;54.094;12.112;2022-10-24T05:55:52;8.68;;;3.50;;
5585;SDS011;2815;54.094;12.112;2022-10-24T05:58:20;8.52;;;4.95;;
5585;SDS011;2815;54.094;12.112;2022-10-24T06:00:48;7.13;;;4.55;;
5585;SDS011;2815;54.094;12.112;2022-10-24T06:03:19;7.43;;;5.05;;
5585;SDS011;2815;54.094;12.112;2022-10-24T06:05:47;8.50;;;4.85;;
5585;SDS011;2815;54.094;12.112;2022-10-24T06:08:16;10.07;;;5.18;;
5585;SDS011;2815;54.094;12.112;2022-10-24T06:10:45;6.10;;;3.95;;
5585;SDS011;2815;54.094;12.112;2022-10-24T06:13:15;12.18;;;4.55;;
5585;SDS011;2815;54.094;12.112;2022-10-24T06:15:43;6.35;;;4.40;;
5585;SDS011;2815;54.094;12.112;2022-10-24T06:18:11;6.78;;;4.47;;
5585;SDS011;2815;54.094;12.112;2022-10-24T06:20:39;7.35;;;4.72;;
5585;SDS011;2815;54.094;12.112;2022-10-24T06:23:07;13.73;;;4.65;;
5585;SDS011;2815;54.094;12.112;2022-10-24T06:25:35;9.15;;;4.18;;
5585;SDS011;2815;54.094;12.112;2022-10-24T06:28:03;8.60;;;5.03;;
5585;SDS011;2815;54.094;12.112;2022-10-24T06:30:35;8.15;;;4.53;;
5585;SDS011;2815;54.094;12.112;2022-10-24T06:33:03;6.45;;;3.60;;
5585;SDS011;2815;54.094;12.112;2022-10-24T06:35:31;10.50;;;4.47;;
5585;SDS011;2815;54.094;12.112;2022-10-24T06:37:59;11.77;;;4.53;;
5585;SDS011;2815;54.094;12.112;2022-10-24T06:40:27;6.32;;;3.95;;
5585;SDS011;2815;54.094;12.112;2022-10-24T06:42:55;8.48;;;4.57;;
5585;SDS011;2815;54.094;12.112;2022-10-24T06:45:23;7.90;;;3.47;;
5585;SDS011;2815;54.094;12.112;2022-10-24T06:47:52;8.15;;;4.32;;
5585;SDS011;2815;54.094;12.112;2022-10-24T06:50:21;9.65;;;4.50;;
5585;SDS011;2815;54.094;12.112;2022-10-24T06:52:49;10.55;;;4.60;;
5585;SDS011;2815;54.094;12.112;2022-10-24T06:55:17;11.65;;;4.65;;
5585;SDS011;2815;54.094;12.112;2022-10-24T06:57:45;7.65;;;3.90;;
5585;SDS011;2815;54.094;12.112;2022-10-24T07:00:14;6.82;;;4.40;;
5585;SDS011;2815;54.094;12.112;2022-10-24T07:02:43;7.32;;;3.17;;
5585;SDS011;2815;54.094;12.112;2022-10-24T07:05:12;8.60;;;3.70;;
5585;SDS011;2815;54.094;12.112;2022-10-24T07:07:41;11.82;;;3.90;;
5585;SDS011;2815;54.094;12.112;2022-10-24T07:10:10;7.00;;;3.95;;
5585;SDS011;2815;54.094;12.112;2022-10-24T07:12:39;7.68;;;3.80;;
5585;SDS011;2815;54.094;12.112;2022-10-24T07:15:09;5.82;;;3.83;;
5585;SDS011;2815;54.094;12.112;2022-10-24T07:17:38;8.73;;;3.95;;
5585;SDS011;2815;54.094;12.112;2022-10-24T07:20:06;6.75;;;3.85;;
5585;SDS011;2815;54.094;12.112;2022-10-24T07:22:36;7.00;;;3.67;;
5585;SDS011;2815;54.094;12.112;2022-10-24T07:25:04;6.93;;;3.63;;
5585;SDS011;2815;54.094;12.112;2022-10-24T07:27:33;7.93;;;3.60;;
5585;SDS011;2815;54.094;12.112;2022-10-24T07:30:02;6.53;;;3.58;;
5585;SDS011;2815;54.094;12.112;2022-10-24T07:32:31;7.20;;;3.55;;
5585;SDS011;2815;54.094;12.112;2022-10-24T07:34:59;9.27;;;3.63;;
5585;SDS011;2815;54.094;12.112;2022-10-24T07:37:27;9.15;;;3.90;;
5585;SDS011;2815;54.094;12.112;2022-10-24T07:39:56;10.48;;;4.32;;
5585;SDS011;2815;54.094;12.112;2022-10-24T07:42:24;6.88;;;3.22;;
5585;SDS011;2815;54.094;12.112;2022-10-24T07:44:52;7.82;;;3.10;;
5585;SDS011;2815;54.094;12.112;2022-10-24T07:47:20;5.40;;;3.30;;
5585;SDS011;2815;54.094;12.112;2022-10-24T07:49:48;8.85;;;4.30;;
5585;SDS011;2815;54.094;12.112;2022-10-24T07:52:16;7.20;;;3.25;;
5585;SDS011;2815;54.094;12.112;2022-10-24T07:54:43;12.93;;;3.67;;
5585;SDS011;2815;54.094;12.112;2022-10-24T07:57:13;7.50;;;3.63;;
5585;SDS011;2815;54.094;12.112;2022-10-24T07:59:41;8.05;;;3.63;;
5585;SDS011;2815;54.094;12.112;2022-10-24T08:02:09;6.30;;;3.15;;
5585;SDS011;2815;54.094;12.112;2022-10-24T08:04:38;5.80;;;3.40;;
5585;SDS011;2815;54.094;12.112;2022-10-24T08:07:06;5.97;;;3.10;;
5585;SDS011;2815;54.094;12.112;2022-10-24T08:09:39;8.05;;;3.40;;
5585;SDS011;2815;54.094;12.112;2022-10-24T08:12:08;4.82;;;3.22;;
5585;SDS011;2815;54.094;12.112;2022-10-24T08:14:38;8.80;;;3.30;;
5585;SDS011;2815;54.094;12.112;2022-10-24T08:17:07;7.80;;;3.28;;
5585;SDS011;2815;54.094;12.112;2022-10-24T08:19:36;5.32;;;3.00;;
5585;SDS011;2815;54.094;12.112;2022-10-24T08:22:09;5.47;;;2.75;;
5585;SDS011;2815;54.094;12.112;2022-10-24T08:24:37;7.07;;;2.55;;
5585;SDS011;2815;54.094;12.112;2022-10-24T08:27:05;8.25;;;3.15;;
5585;SDS011;2815;54.094;12.112;2022-10-24T08:29:33;9.63;;;3.90;;
5585;SDS011;2815;54.094;12.112;2022-10-24T08:32:03;5.88;;;2.88;;
5585;SDS011;2815;54.094;12.112;2022-10-24T08:34:32;5.65;;;2.65;;
5585;SDS011;2815;54.094;12.112;2022-10-24T08:37:00;6.15;;;2.80;;
5585;SDS011;2815;54.094;12.112;2022-10-24T08:39:28;8.07;;;2.55;;
5585;SDS011;2815;54.094;12.112;2022-10-24T08:41:56;6.93;;;2.88;;
5585;SDS011;2815;54.094;12.112;2022-10-24T08:44:27;8.55;;;2.85;;
5585;SDS011;2815;54.094;12.112;2022-10-24T08:46:57;12.82;;;2.63;;
5585;SDS011;2815;54.094;12.112;2022-10-24T08:49:31;11.00;;;3.33;;
5585;SDS011;2815;54.094;12.112;2022-10-24T08:52:02;4.07;;;2.10;;
5585;SDS011;2815;54.094;12.112;2022-10-24T08:54:38;7.28;;;2.65;;
5585;SDS011;2815;54.094;12.112;2022-10-24T08:57:08;6.32;;;2.78;;
5585;SDS011;2815;54.094;12.112;2022-10-24T08:59:44;13.60;;;2.85;;
5585;SDS011;2815;54.094;12.112;2022-10-24T09:02:14;7.78;;;2.85;;
5585;SDS011;2815;54.094;12.112;2022-10-24T09:07:16;2.67;;;1.55;;
5585;SDS011;2815;54.094;12.112;2022-10-24T09:09:46;6.60;;;2.22;;
5585;SDS011;2815;54.094;12.112;2022-10-24T09:12:16;6.45;;;2.22;;
5585;SDS011;2815;54.094;12.112;2022-10-24T09:14:46;4.15;;;2.42;;
5585;SDS011;2815;54.094;12.112;2022-10-24T09:19:50;5.80;;;2.25;;
5585;SDS011;2815;54.094;12.112;2022-10-24T09:22:19;7.32;;;2.35;;
5585;SDS011;2815;54.094;12.112;2022-10-24T09:24:49;7.55;;;2.58;;
5585;SDS011;2815;54.094;12.112;2022-10-24T09:27:19;7.22;;;2.22;;
5585;SDS011;2815;54.094;12.112;2022-10-24T09:29:49;5.30;;;2.47;;
5585;SDS011;2815;54.094;12.112;2022-10-24T09:32:18;5.90;;;2.60;;
5585;SDS011;2815;54.094;12.112;2022-10-24T09:34:49;8.98;;;2.50;;
5585;SDS011;2815;54.094;12.112;2022-10-24T09:37:30;2.92;;;2.03;;
5585;SDS011;2815;54.094;12.112;2022-10-24T09:40:13;6.68;;;2.63;;
5585;SDS011;2815;54.094;12.112;2022-10-24T09:42:50;7.25;;;2.58;;
5585;SDS011;2815;54.094;12.112;2022-10-24T09:45:31;7.47;;;3.15;;
5585;SDS011;2815;54.094;12.112;2022-10-24T09:48:02;6.82;;;2.65;;
5585;SDS011;2815;54.094;12.112;2022-10-24T09:50:34;8.02;;;3.20;;
5585;SDS011;2815;54.094;12.112;2022-10-24T09:53:02;8.60;;;2.75;;
5585;SDS011;2815;54.094;12.112;2022-10-24T09:55:31;6.13;;;2.47;;
5585;SDS011;2815;54.094;12.112;2022-10-24T09:57:59;6.53;;;2.40;;
5585;SDS011;2815;54.094;12.112;2022-10-24T10:00:31;7.82;;;2.92;;
5585;SDS011;2815;54.094;12.112;2022-10-24T10:03:04;5.60;;;2.30;;
5585;SDS011;2815;54.094;12.112;2022-10-24T10:05:43;9.10;;;2.90;;
5585;SDS011;2815;54.094;12.112;2022-10-24T10:08:15;8.30;;;2.30;;
5585;SDS011;2815;54.094;12.112;2022-10-24T10:10:56;11.65;;;2.35;;
5585;SDS011;2815;54.094;12.112;2022-10-24T10:13:26;6.78;;;2.30;;
5585;SDS011;2815;54.094;12.112;2022-10-24T10:15:55;11.20;;;2.47;;
5585;SDS011;2815;54.094;12.112;2022-10-24T10:18:28;8.43;;;2.33;;
5585;SDS011;2815;54.094;12.112;2022-10-24T10:21:04;5.53;;;2.22;;
5585;SDS011;2815;54.094;12.112;2022-10-24T10:23:34;6.00;;;2.50;;
5585;SDS011;2815;54.094;12.112;2022-10-24T10:26:05;8.32;;;2.25;;
5585;SDS011;2815;54.094;12.112;2022-10-24T10:28:42;9.05;;;2.40;;
5585;SDS011;2815;54.094;12.112;2022-10-24T10:31:15;6.50;;;2.20;;
5585;SDS011;2815;54.094;12.112;2022-10-24T10:33:44;4.60;;;2.47;;
5585;SDS011;2815;54.094;12.112;2022-10-24T10:36:21;8.00;;;2.05;;
5585;SDS011;2815;54.094;12.112;2022-10-24T10:38:52;11.85;;;2.20;;
5585;SDS011;2815;54.094;12.112;2022-10-24T10:41:31;8.45;;;2.17;;
5585;SDS011;2815;54.094;12.112;2022-10-24T10:44:11;7.65;;;2.42;;
5585;SDS011;2815;54.094;12.112;2022-10-24T10:46:59;8.93;;;2.40;;
5585;SDS011;2815;54.094;12.112;2022-10-24T10:49:31;7.22;;;2.05;;
5585;SDS011;2815;54.094;12.112;2022-10-24T10:52:05;6.70;;;2.20;;
5585;SDS011;2815;54.094;12.112;2022-10-24T10:54:44;9.02;;;2.38;;
5585;SDS011;2815;54.094;12.112;2022-10-24T10:57:18;7.55;;;2.30;;
5585;SDS011;2815;54.094;12.112;2022-10-24T10:59:53;6.75;;;2.15;;
5585;SDS011;2815;54.094;12.112;2022-10-24T11:02:30;5.78;;;1.77;;
5585;SDS011;2815;54.094;12.112;2022-10-24T11:05:08;5.07;;;2.28;;
5585;SDS011;2815;54.094;12.112;2022-10-24T11:08:01;8.65;;;2.10;;
5585;SDS011;2815;54.094;12.112;2022-10-24T11:10:36;7.90;;;1.98;;
5585;SDS011;2815;54.094;12.112;2022-10-24T11:13:10;9.53;;;1.80;;
5585;SDS011;2815;54.094;12.112;2022-10-24T11:15:41;4.75;;;1.85;;
5585;SDS011;2815;54.094;12.112;2022-10-24T11:18:11;3.33;;;1.70;;
5585;SDS011;2815;54.094;12.112;2022-10-24T11:20:43;10.30;;;1.77;;
5585;SDS011;2815;54.094;12.112;2022-10-24T11:23:15;5.75;;;1.55;;
5585;SDS011;2815;54.094;12.112;2022-10-24T11:25:47;6.80;;;2.22;;
5585;SDS011;2815;54.094;12.112;2022-10-24T11:28:19;7.65;;;2.00;;
5585;SDS011;2815;54.094;12.112;2022-10-24T11:30:50;8.40;;;2.22;;
5585;SDS011;2815;54.094;12.112;2022-10-24T11:33:21;10.07;;;2.00;;
5585;SDS011;2815;54.094;12.112;2022-10-24T11:35:58;5.82;;;1.60;;
5585;SDS011;2815;54.094;12.112;2022-10-24T11:38:30;6.38;;;1.67;;
5585;SDS011;2815;54.094;12.112;2022-10-24T11:41:02;5.40;;;1.50;;
5585;SDS011;2815;54.094;12.112;2022-10-24T11:43:42;4.50;;;1.65;;
5585;SDS011;2815;54.094;12.112;2022-10-24T11:46:13;7.90;;;1.95;;
5585;SDS011;2815;54.094;12.112;2022-10-24T11:48:43;7.13;;;1.75;;
5585;SDS011;2815;54.094;12.112;2022-10-24T11:51:19;4.93;;;1.60;;
5585;SDS011;2815;54.094;12.112;2022-10-24T11:53:51;8.07;;;1.10;;
5585;SDS011;2815;54.094;12.112;2022-10-24T11:56:23;5.68;;;1.38;;
5585;SDS011;2815;54.094;12.112;2022-10-24T11:58:56;4.93;;;1.23;;
5585;SDS011;2815;54.094;12.112;2022-10-24T12:07:48;5.15;;;1.52;;
5585;SDS011;2815;54.094;12.112;2022-10-24T12:10:44;5.75;;;1.40;;
5585;SDS011;2815;54.094;12.112;2022-10-24T12:13:29;5.60;;;1.38;;
5585;SDS011;2815;54.094;12.112;2022-10-24T12:16:04;4.90;;;1.50;;
5585;SDS011;2815;54.094;12.112;2022-10-24T12:18:38;3.70;;;1.92;;
5585;SDS011;2815;54.094;12.112;2022-10-24T12:21:08;5.70;;;1.13;;
5585;SDS011;2815;54.094;12.112;2022-10-24T12:23:38;6.80;;;1.30;;
5585;SDS011;2815;54.094;12.112;2022-10-24T12:26:16;4.07;;;1.17;;
5585;SDS011;2815;54.094;12.112;2022-10-24T12:28:52;3.63;;;1.10;;
5585;SDS011;2815;54.094;12.112;2022-10-24T12:31:21;2.05;;;0.90;;
5585;SDS011;2815;54.094;12.112;2022-10-24T12:39:37;5.90;;;1.35;;
5585;SDS011;2815;54.094;12.112;2022-10-24T12:42:14;4.88;;;1.60;;
5585;SDS011;2815;54.094;12.112;2022-10-24T12:44:45;5.55;;;1.08;;
5585;SDS011;2815;54.094;12.112;2022-10-24T12:47:24;3.55;;;0.85;;
5585;SDS011;2815;54.094;12.112;2022-10-24T12:53:01;9.52;;;1.92;;
5585;SDS011;2815;54.094;12.112;2022-10-24T12:58:56;10.85;;;1.83;;
5585;SDS011;2815;54.094;12.112;2022-10-24T13:01:26;3.33;;;1.42;;
5585;SDS011;2815;54.094;12.112;2022-10-24T13:07:10;7.20;;;1.67;;
5585;SDS011;2815;54.094;12.112;2022-10-24T13:09:58;7.28;;;1.35;;
5585;SDS011;2815;54.094;12.112;2022-10-24T13:12:50;4.50;;;1.83;;
5585;SDS011;2815;54.094;12.112;2022-10-24T13:15:45;6.03;;;1.30;;
5585;SDS011;2815;54.094;12.112;2022-10-24T13:18:18;5.00;;;1.13;;
5585;SDS011;2815;54.094;12.112;2022-10-24T13:21:05;5.03;;;1.13;;
5585;SDS011;2815;54.094;12.112;2022-10-24T13:23:41;7.95;;;1.45;;
5585;SDS011;2815;54.094;12.112;2022-10-24T13:26:23;3.72;;;1.40;;
5585;SDS011;2815;54.094;12.112;2022-10-24T13:29:02;5.85;;;1.77;;
5585;SDS011;2815;54.094;12.112;2022-10-24T13:31:46;12.90;;;1.60;;
5585;SDS011;2815;54.094;12.112;2022-10-24T13:34:22;3.08;;;1.23;;
5585;SDS011;2815;54.094;12.112;2022-10-24T13:36:56;5.28;;;1.80;;
5585;SDS011;2815;54.094;12.112;2022-10-24T13:39:27;7.55;;;1.45;;
5585;SDS011;2815;54.094;12.112;2022-10-24T13:42:02;11.85;;;1.70;;
5585;SDS011;2815;54.094;12.112;2022-10-24T13:44:33;3.72;;;1.30;;
5585;SDS011;2815;54.094;12.112;2022-10-24T13:47:10;8.07;;;1.65;;
5585;SDS011;2815;54.094;12.112;2022-10-24T13:49:44;4.72;;;1.50;;
5585;SDS011;2815;54.094;12.112;2022-10-24T13:52:17;3.55;;;1.25;;
5585;SDS011;2815;54.094;12.112;2022-10-24T13:54:48;5.85;;;1.50;;
5585;SDS011;2815;54.094;12.112;2022-10-24T13:57:26;3.97;;;1.38;;
5585;SDS011;2815;54.094;12.112;2022-10-24T13:59:57;3.45;;;1.75;;
5585;SDS011;2815;54.094;12.112;2022-10-24T14:02:28;4.95;;;1.50;;
5585;SDS011;2815;54.094;12.112;2022-10-24T14:04:59;7.57;;;1.77;;
5585;SDS011;2815;54.094;12.112;2022-10-24T14:07:28;6.13;;;1.90;;
5585;SDS011;2815;54.094;12.112;2022-10-24T14:09:57;6.85;;;1.20;;
5585;SDS011;2815;54.094;12.112;2022-10-24T14:12:29;6.35;;;1.50;;
5585;SDS011;2815;54.094;12.112;2022-10-24T14:14:59;2.63;;;1.30;;
5585;SDS011;2815;54.094;12.112;2022-10-24T14:17:30;8.65;;;1.55;;
5585;SDS011;2815;54.094;12.112;2022-10-24T14:20:00;3.25;;;1.60;;
5585;SDS011;2815;54.094;12.112;2022-10-24T14:22:34;4.75;;;1.63;;
5585;SDS011;2815;54.094;12.112;2022-10-24T14:25:05;3.78;;;1.23;;
5585;SDS011;2815;54.094;12.112;2022-10-24T14:27:33;6.80;;;2.03;;
5585;SDS011;2815;54.094;12.112;2022-10-24T14:30:03;6.13;;;1.13;;
5585;SDS011;2815;54.094;12.112;2022-10-24T14:32:33;3.92;;;1.40;;
5585;SDS011;2815;54.094;12.112;2022-10-24T14:35:01;3.33;;;1.30;;
5585;SDS011;2815;54.094;12.112;2022-10-24T14:37:30;6.68;;;1.52;;
5585;SDS011;2815;54.094;12.112;2022-10-24T14:39:59;6.05;;;2.17;;
5585;SDS011;2815;54.094;12.112;2022-10-24T14:42:27;6.82;;;1.40;;
5585;SDS011;2815;54.094;12.112;2022-10-24T14:44:55;6.55;;;1.55;;
5585;SDS011;2815;54.094;12.112;2022-10-24T14:47:28;4.15;;;1.30;;
5585;SDS011;2815;54.094;12.112;2022-10-24T14:50:01;5.35;;;1.60;;
5585;SDS011;2815;54.094;12.112;2022-10-24T14:52:32;1.23;;;0.77;;
5585;SDS011;2815;54.094;12.112;2022-10-24T14:55:03;5.20;;;1.50;;
5585;SDS011;2815;54.094;12.112;2022-10-24T14:57:33;5.03;;;1.30;;
5585;SDS011;2815;54.094;12.112;2022-10-24T15:00:03;7.47;;;1.30;;
5585;SDS011;2815;54.094;12.112;2022-10-24T15:02:34;3.97;;;1.50;;
5585;SDS011;2815;54.094;12.112;2022-10-24T15:05:29;8.60;;;1.75;;
5585;SDS011;2815;54.094;12.112;2022-10-24T15:08:00;4.57;;;1.60;;
5585;SDS011;2815;54.094;12.112;2022-10-24T15:11:05;6.38;;;1.60;;
5585;SDS011;2815;54.094;12.112;2022-10-24T15:13:44;2.42;;;1.20;;
5585;SDS011;2815;54.094;12.112;2022-10-24T15:16:32;7.25;;;1.77;;
5585;SDS011;2815;54.094;12.112;2022-10-24T15:19:02;8.68;;;2.03;;
5585;SDS011;2815;54.094;12.112;2022-10-24T15:21:34;5.88;;;2.28;;
5585;SDS011;2815;54.094;12.112;2022-10-24T15:24:05;6.30;;;1.40;;
5585;SDS011;2815;54.094;12.112;2022-10-24T15:26:34;5.93;;;1.40;;
5585;SDS011;2815;54.094;12.112;2022-10-24T15:29:07;4.75;;;1.80;;
5585;SDS011;2815;54.094;12.112;2022-10-24T15:31:43;5.90;;;1.23;;
5585;SDS011;2815;54.094;12.112;2022-10-24T15:34:12;6.97;;;1.70;;
5585;SDS011;2815;54.094;12.112;2022-10-24T15:36:42;7.30;;;1.58;;
5585;SDS011;2815;54.094;12.112;2022-10-24T15:39:12;4.50;;;1.23;;
5585;SDS011;2815;54.094;12.112;2022-10-24T15:41:40;6.22;;;1.60;;
5585;SDS011;2815;54.094;12.112;2022-10-24T15:44:12;3.72;;;1.48;;
5585;SDS011;2815;54.094;12.112;2022-10-24T15:46:41;5.22;;;1.70;;
5585;SDS011;2815;54.094;12.112;2022-10-24T15:49:09;3.08;;;1.30;;
5585;SDS011;2815;54.094;12.112;2022-10-24T15:51:37;8.57;;;2.38;;
5585;SDS011;2815;54.094;12.112;2022-10-24T15:54:16;3.53;;;1.13;;
5585;SDS011;2815;54.094;12.112;2022-10-24T15:56:45;5.30;;;1.42;;